sensor_id;sensor_type;location;lat;lon;timestamp;P1;durP1;ratioP1;P2;durP2;ratioP2
16159;SDS011;8185;57.818;15.224;2023-04-03T00:00:52;2.17;;;1.20;;
16159;SDS011;8185;57.818;15.224;2023-04-03T00:03:19;1.73;;;0.80;;
16159;SDS011;8185;57.818;15.224;2023-04-03T00:05:46;1.70;;;0.93;;
16159;SDS011;8185;57.818;15.224;2023-04-03T00:08:15;1.63;;;0.80;;
16159;SDS011;8185;57.818;15.224;2023-04-03T00:10:42;1.67;;;0.70;;
16159;SDS011;8185;57.818;15.224;2023-04-03T00:13:10;2.83;;;1.03;;
16159;SDS011;8185;57.818;15.224;2023-04-03T00:15:37;1.70;;;0.80;;
16159;SDS011;8185;57.818;15.224;2023-04-03T00:18:05;1.63;;;0.90;;
16159;SDS011;8185;57.818;15.224;2023-04-03T00:20:33;3.27;;;0.90;;
16159;SDS011;8185;57.818;15.224;2023-04-03T00:23:00;3.57;;;1.27;;
16159;SDS011;8185;57.818;15.224;2023-04-03T00:25:30;1.80;;;0.73;;
16159;SDS011;8185;57.818;15.224;2023-04-03T00:27:57;2.23;;;0.90;;
16159;SDS011;8185;57.818;15.224;2023-04-03T00:30:24;3.87;;;1.00;;
16159;SDS011;8185;57.818;15.224;2023-04-03T00:32:52;2.50;;;0.90;;
16159;SDS011;8185;57.818;15.224;2023-04-03T00:35:19;1.73;;;0.90;;
16159;SDS011;8185;57.818;15.224;2023-04-03T00:37:48;2.83;;;0.80;;
16159;SDS011;8185;57.818;15.224;2023-04-03T00:40:18;1.73;;;0.90;;
16159;SDS011;8185;57.818;15.224;2023-04-03T00:42:48;2.50;;;0.70;;
16159;SDS011;8185;57.818;15.224;2023-04-03T00:45:32;2.60;;;1.13;;
16159;SDS011;8185;57.818;15.224;2023-04-03T00:48:01;3.47;;;1.10;;
16159;SDS011;8185;57.818;15.224;2023-04-03T00:50:32;1.90;;;0.90;;
16159;SDS011;8185;57.818;15.224;2023-04-03T00:53:01;2.23;;;0.90;;
16159;SDS011;8185;57.818;15.224;2023-04-03T00:55:31;2.57;;;0.93;;
16159;SDS011;8185;57.818;15.224;2023-04-03T00:58:00;1.80;;;0.73;;
16159;SDS011;8185;57.818;15.224;2023-04-03T01:00:29;2.17;;;1.07;;
16159;SDS011;8185;57.818;15.224;2023-04-03T01:02:56;1.73;;;0.80;;
16159;SDS011;8185;57.818;15.224;2023-04-03T01:05:24;3.10;;;0.80;;
16159;SDS011;8185;57.818;15.224;2023-04-03T01:07:51;2.27;;;0.90;;
16159;SDS011;8185;57.818;15.224;2023-04-03T01:10:19;2.27;;;0.97;;
16159;SDS011;8185;57.818;15.224;2023-04-03T01:12:48;2.07;;;1.00;;
16159;SDS011;8185;57.818;15.224;2023-04-03T01:15:19;5.13;;;1.27;;
16159;SDS011;8185;57.818;15.224;2023-04-03T01:17:48;1.70;;;0.90;;
16159;SDS011;8185;57.818;15.224;2023-04-03T01:20:40;2.23;;;0.90;;
16159;SDS011;8185;57.818;15.224;2023-04-03T01:23:27;2.07;;;0.93;;
16159;SDS011;8185;57.818;15.224;2023-04-03T01:26:03;1.47;;;0.90;;
16159;SDS011;8185;57.818;15.224;2023-04-03T01:28:31;2.63;;;1.17;;
16159;SDS011;8185;57.818;15.224;2023-04-03T01:31:02;2.30;;;0.90;;
16159;SDS011;8185;57.818;15.224;2023-04-03T01:33:40;2.93;;;0.93;;
16159;SDS011;8185;57.818;15.224;2023-04-03T01:36:08;1.97;;;0.90;;
16159;SDS011;8185;57.818;15.224;2023-04-03T01:38:36;5.97;;;1.33;;
16159;SDS011;8185;57.818;15.224;2023-04-03T01:41:03;2.87;;;0.93;;
16159;SDS011;8185;57.818;15.224;2023-04-03T01:43:30;1.67;;;1.00;;
16159;SDS011;8185;57.818;15.224;2023-04-03T01:45:58;2.30;;;0.77;;
16159;SDS011;8185;57.818;15.224;2023-04-03T01:48:25;2.83;;;1.10;;
16159;SDS011;8185;57.818;15.224;2023-04-03T01:50:54;3.50;;;1.17;;
16159;SDS011;8185;57.818;15.224;2023-04-03T01:53:21;2.80;;;1.10;;
16159;SDS011;8185;57.818;15.224;2023-04-03T01:55:49;2.07;;;1.10;;
16159;SDS011;8185;57.818;15.224;2023-04-03T01:58:16;3.57;;;1.20;;
16159;SDS011;8185;57.818;15.224;2023-04-03T02:00:43;2.00;;;0.80;;
16159;SDS011;8185;57.818;15.224;2023-04-03T02:03:10;4.67;;;1.27;;
16159;SDS011;8185;57.818;15.224;2023-04-03T02:05:38;1.03;;;0.90;;
16159;SDS011;8185;57.818;15.224;2023-04-03T02:08:06;3.50;;;1.07;;
16159;SDS011;8185;57.818;15.224;2023-04-03T02:10:33;3.70;;;1.27;;
16159;SDS011;8185;57.818;15.224;2023-04-03T02:13:01;2.17;;;1.10;;
16159;SDS011;8185;57.818;15.224;2023-04-03T02:15:28;2.67;;;1.30;;
16159;SDS011;8185;57.818;15.224;2023-04-03T02:17:55;2.43;;;1.03;;
16159;SDS011;8185;57.818;15.224;2023-04-03T02:20:22;2.43;;;0.90;;
16159;SDS011;8185;57.818;15.224;2023-04-03T02:22:49;1.70;;;0.97;;
16159;SDS011;8185;57.818;15.224;2023-04-03T02:25:18;5.50;;;1.37;;
16159;SDS011;8185;57.818;15.224;2023-04-03T02:27:45;3.33;;;1.33;;
16159;SDS011;8185;57.818;15.224;2023-04-03T02:30:12;1.93;;;0.70;;
16159;SDS011;8185;57.818;15.224;2023-04-03T02:32:40;1.07;;;0.90;;
16159;SDS011;8185;57.818;15.224;2023-04-03T02:35:07;4.10;;;1.37;;
16159;SDS011;8185;57.818;15.224;2023-04-03T02:37:35;3.37;;;0.90;;
16159;SDS011;8185;57.818;15.224;2023-04-03T02:40:03;2.90;;;1.23;;
16159;SDS011;8185;57.818;15.224;2023-04-03T02:42:32;2.47;;;1.13;;
16159;SDS011;8185;57.818;15.224;2023-04-03T02:44:59;3.40;;;1.53;;
16159;SDS011;8185;57.818;15.224;2023-04-03T02:47:26;2.27;;;1.10;;
16159;SDS011;8185;57.818;15.224;2023-04-03T02:49:54;1.93;;;0.83;;
16159;SDS011;8185;57.818;15.224;2023-04-03T02:52:21;4.43;;;1.40;;
16159;SDS011;8185;57.818;15.224;2023-04-03T02:54:48;3.03;;;1.00;;
16159;SDS011;8185;57.818;15.224;2023-04-03T02:57:15;4.20;;;1.43;;
16159;SDS011;8185;57.818;15.224;2023-04-03T02:59:44;2.43;;;0.97;;
16159;SDS011;8185;57.818;15.224;2023-04-03T03:02:11;1.53;;;1.00;;
16159;SDS011;8185;57.818;15.224;2023-04-03T03:04:39;3.40;;;1.20;;
16159;SDS011;8185;57.818;15.224;2023-04-03T03:07:06;4.93;;;1.30;;
16159;SDS011;8185;57.818;15.224;2023-04-03T03:09:33;2.40;;;1.00;;
16159;SDS011;8185;57.818;15.224;2023-04-03T03:12:00;3.27;;;1.50;;
16159;SDS011;8185;57.818;15.224;2023-04-03T03:14:27;3.30;;;1.27;;
16159;SDS011;8185;57.818;15.224;2023-04-03T03:16:59;4.57;;;1.47;;
16159;SDS011;8185;57.818;15.224;2023-04-03T03:19:26;3.77;;;1.40;;
16159;SDS011;8185;57.818;15.224;2023-04-03T03:21:53;5.60;;;1.60;;
16159;SDS011;8185;57.818;15.224;2023-04-03T03:24:22;7.27;;;1.40;;
16159;SDS011;8185;57.818;15.224;2023-04-03T03:26:49;4.43;;;1.33;;
16159;SDS011;8185;57.818;15.224;2023-04-03T03:29:16;2.43;;;0.93;;
16159;SDS011;8185;57.818;15.224;2023-04-03T03:31:43;5.97;;;1.40;;
16159;SDS011;8185;57.818;15.224;2023-04-03T03:34:12;2.57;;;1.13;;
16159;SDS011;8185;57.818;15.224;2023-04-03T03:36:39;2.13;;;1.20;;
16159;SDS011;8185;57.818;15.224;2023-04-03T03:39:07;5.90;;;1.40;;
16159;SDS011;8185;57.818;15.224;2023-04-03T03:41:34;5.37;;;1.70;;
16159;SDS011;8185;57.818;15.224;2023-04-03T03:44:01;6.33;;;1.80;;
16159;SDS011;8185;57.818;15.224;2023-04-03T03:46:28;2.83;;;1.37;;
16159;SDS011;8185;57.818;15.224;2023-04-03T03:48:56;6.40;;;1.70;;
16159;SDS011;8185;57.818;15.224;2023-04-03T03:51:24;7.40;;;1.70;;
16159;SDS011;8185;57.818;15.224;2023-04-03T03:53:51;3.43;;;1.40;;
16159;SDS011;8185;57.818;15.224;2023-04-03T03:56:19;4.53;;;1.30;;
16159;SDS011;8185;57.818;15.224;2023-04-03T03:58:46;6.53;;;1.37;;
16159;SDS011;8185;57.818;15.224;2023-04-03T04:01:14;3.50;;;1.40;;
16159;SDS011;8185;57.818;15.224;2023-04-03T04:03:42;4.03;;;1.40;;
16159;SDS011;8185;57.818;15.224;2023-04-03T04:06:09;3.97;;;1.40;;
16159;SDS011;8185;57.818;15.224;2023-04-03T04:08:37;6.80;;;1.93;;
16159;SDS011;8185;57.818;15.224;2023-04-03T04:11:05;3.60;;;1.30;;
16159;SDS011;8185;57.818;15.224;2023-04-03T04:13:32;3.67;;;1.30;;
16159;SDS011;8185;57.818;15.224;2023-04-03T04:15:59;5.53;;;1.40;;
16159;SDS011;8185;57.818;15.224;2023-04-03T04:18:27;6.03;;;1.40;;
16159;SDS011;8185;57.818;15.224;2023-04-03T04:20:54;3.37;;;1.33;;
16159;SDS011;8185;57.818;15.224;2023-04-03T04:23:22;1.73;;;1.10;;
16159;SDS011;8185;57.818;15.224;2023-04-03T04:25:50;6.13;;;1.30;;
16159;SDS011;8185;57.818;15.224;2023-04-03T04:28:18;3.67;;;1.50;;
16159;SDS011;8185;57.818;15.224;2023-04-03T04:30:45;4.07;;;1.30;;
16159;SDS011;8185;57.818;15.224;2023-04-03T04:33:13;3.27;;;1.60;;
16159;SDS011;8185;57.818;15.224;2023-04-03T04:35:41;7.03;;;1.60;;
16159;SDS011;8185;57.818;15.224;2023-04-03T04:38:09;5.57;;;2.03;;
16159;SDS011;8185;57.818;15.224;2023-04-03T04:40:36;3.17;;;1.50;;
16159;SDS011;8185;57.818;15.224;2023-04-03T04:43:05;4.07;;;1.50;;
16159;SDS011;8185;57.818;15.224;2023-04-03T04:45:32;2.80;;;1.30;;
16159;SDS011;8185;57.818;15.224;2023-04-03T04:47:59;2.37;;;1.20;;
16159;SDS011;8185;57.818;15.224;2023-04-03T04:50:26;5.47;;;1.50;;
16159;SDS011;8185;57.818;15.224;2023-04-03T04:52:54;5.93;;;1.53;;
16159;SDS011;8185;57.818;15.224;2023-04-03T04:55:21;3.87;;;1.50;;
16159;SDS011;8185;57.818;15.224;2023-04-03T04:57:51;3.80;;;1.53;;
16159;SDS011;8185;57.818;15.224;2023-04-03T05:00:20;4.20;;;1.47;;
16159;SDS011;8185;57.818;15.224;2023-04-03T05:02:47;2.40;;;0.97;;
16159;SDS011;8185;57.818;15.224;2023-04-03T05:05:14;5.70;;;1.60;;
16159;SDS011;8185;57.818;15.224;2023-04-03T05:07:42;4.53;;;1.37;;
16159;SDS011;8185;57.818;15.224;2023-04-03T05:10:09;2.37;;;1.20;;
16159;SDS011;8185;57.818;15.224;2023-04-03T05:12:37;3.57;;;1.23;;
16159;SDS011;8185;57.818;15.224;2023-04-03T05:15:05;3.10;;;1.30;;
16159;SDS011;8185;57.818;15.224;2023-04-03T05:17:34;6.43;;;1.87;;
16159;SDS011;8185;57.818;15.224;2023-04-03T05:20:01;7.70;;;1.50;;
16159;SDS011;8185;57.818;15.224;2023-04-03T05:22:30;2.30;;;1.37;;
16159;SDS011;8185;57.818;15.224;2023-04-03T05:24:57;3.40;;;1.50;;
16159;SDS011;8185;57.818;15.224;2023-04-03T05:27:25;3.97;;;1.10;;
16159;SDS011;8185;57.818;15.224;2023-04-03T05:29:53;3.87;;;1.43;;
16159;SDS011;8185;57.818;15.224;2023-04-03T05:32:21;5.50;;;1.40;;
16159;SDS011;8185;57.818;15.224;2023-04-03T05:34:50;2.90;;;1.20;;
16159;SDS011;8185;57.818;15.224;2023-04-03T05:37:17;2.20;;;1.20;;
16159;SDS011;8185;57.818;15.224;2023-04-03T05:39:45;5.87;;;1.50;;
16159;SDS011;8185;57.818;15.224;2023-04-03T05:42:12;5.73;;;1.40;;
16159;SDS011;8185;57.818;15.224;2023-04-03T05:44:41;5.73;;;1.40;;
16159;SDS011;8185;57.818;15.224;2023-04-03T05:47:09;6.10;;;1.40;;
16159;SDS011;8185;57.818;15.224;2023-04-03T05:49:36;3.00;;;1.50;;
16159;SDS011;8185;57.818;15.224;2023-04-03T05:52:08;1.77;;;1.30;;
16159;SDS011;8185;57.818;15.224;2023-04-03T05:54:43;2.87;;;1.53;;
16159;SDS011;8185;57.818;15.224;2023-04-03T05:57:13;3.63;;;1.30;;
16159;SDS011;8185;57.818;15.224;2023-04-03T05:59:41;4.53;;;1.60;;
16159;SDS011;8185;57.818;15.224;2023-04-03T06:02:09;8.03;;;1.83;;
16159;SDS011;8185;57.818;15.224;2023-04-03T06:04:38;4.73;;;1.30;;
16159;SDS011;8185;57.818;15.224;2023-04-03T06:07:07;5.50;;;1.30;;
16159;SDS011;8185;57.818;15.224;2023-04-03T06:09:37;3.53;;;1.30;;
16159;SDS011;8185;57.818;15.224;2023-04-03T06:12:05;5.03;;;1.47;;
16159;SDS011;8185;57.818;15.224;2023-04-03T06:14:32;6.20;;;1.40;;
16159;SDS011;8185;57.818;15.224;2023-04-03T06:17:00;4.93;;;1.40;;
16159;SDS011;8185;57.818;15.224;2023-04-03T06:19:27;3.53;;;1.30;;
16159;SDS011;8185;57.818;15.224;2023-04-03T06:21:54;2.83;;;1.50;;
16159;SDS011;8185;57.818;15.224;2023-04-03T06:24:23;4.17;;;1.50;;
16159;SDS011;8185;57.818;15.224;2023-04-03T06:26:50;4.60;;;1.50;;
16159;SDS011;8185;57.818;15.224;2023-04-03T06:29:20;5.17;;;1.60;;
16159;SDS011;8185;57.818;15.224;2023-04-03T06:31:48;4.33;;;2.00;;
16159;SDS011;8185;57.818;15.224;2023-04-03T06:34:15;4.93;;;1.70;;
16159;SDS011;8185;57.818;15.224;2023-04-03T06:36:43;4.03;;;1.77;;
16159;SDS011;8185;57.818;15.224;2023-04-03T06:39:11;3.60;;;1.67;;
16159;SDS011;8185;57.818;15.224;2023-04-03T06:41:42;4.40;;;1.20;;
16159;SDS011;8185;57.818;15.224;2023-04-03T06:44:10;6.33;;;1.40;;
16159;SDS011;8185;57.818;15.224;2023-04-03T06:46:38;3.77;;;1.50;;
16159;SDS011;8185;57.818;15.224;2023-04-03T06:49:06;3.83;;;1.30;;
16159;SDS011;8185;57.818;15.224;2023-04-03T06:51:34;4.73;;;1.50;;
16159;SDS011;8185;57.818;15.224;2023-04-03T06:54:02;6.93;;;1.77;;
16159;SDS011;8185;57.818;15.224;2023-04-03T06:56:31;3.40;;;1.60;;
16159;SDS011;8185;57.818;15.224;2023-04-03T06:58:59;6.00;;;1.67;;
16159;SDS011;8185;57.818;15.224;2023-04-03T07:01:27;5.23;;;1.83;;
16159;SDS011;8185;57.818;15.224;2023-04-03T07:03:55;4.00;;;1.63;;
16159;SDS011;8185;57.818;15.224;2023-04-03T07:06:22;4.10;;;1.57;;
16159;SDS011;8185;57.818;15.224;2023-04-03T07:08:52;4.80;;;1.43;;
16159;SDS011;8185;57.818;15.224;2023-04-03T07:11:19;4.20;;;1.50;;
16159;SDS011;8185;57.818;15.224;2023-04-03T07:13:47;4.40;;;1.67;;
16159;SDS011;8185;57.818;15.224;2023-04-03T07:16:16;4.27;;;1.53;;
16159;SDS011;8185;57.818;15.224;2023-04-03T07:18:43;3.57;;;1.43;;
16159;SDS011;8185;57.818;15.224;2023-04-03T07:21:11;6.90;;;1.37;;
16159;SDS011;8185;57.818;15.224;2023-04-03T07:23:38;5.57;;;1.60;;
16159;SDS011;8185;57.818;15.224;2023-04-03T07:26:06;3.53;;;1.27;;
16159;SDS011;8185;57.818;15.224;2023-04-03T07:28:34;4.60;;;1.30;;
16159;SDS011;8185;57.818;15.224;2023-04-03T07:31:04;6.57;;;1.30;;
16159;SDS011;8185;57.818;15.224;2023-04-03T07:33:34;2.30;;;1.17;;
16159;SDS011;8185;57.818;15.224;2023-04-03T07:36:03;3.53;;;1.10;;
16159;SDS011;8185;57.818;15.224;2023-04-03T07:38:32;4.87;;;1.27;;
16159;SDS011;8185;57.818;15.224;2023-04-03T07:41:00;4.40;;;1.30;;
16159;SDS011;8185;57.818;15.224;2023-04-03T07:43:27;5.63;;;1.20;;
16159;SDS011;8185;57.818;15.224;2023-04-03T07:45:55;3.87;;;1.00;;
16159;SDS011;8185;57.818;15.224;2023-04-03T07:48:23;4.80;;;1.57;;
16159;SDS011;8185;57.818;15.224;2023-04-03T07:50:52;5.00;;;1.53;;
16159;SDS011;8185;57.818;15.224;2023-04-03T07:53:20;2.17;;;1.23;;
16159;SDS011;8185;57.818;15.224;2023-04-03T07:55:47;4.97;;;1.10;;
16159;SDS011;8185;57.818;15.224;2023-04-03T07:58:17;3.73;;;1.20;;
16159;SDS011;8185;57.818;15.224;2023-04-03T08:00:45;6.67;;;1.30;;
16159;SDS011;8185;57.818;15.224;2023-04-03T08:03:13;3.80;;;1.40;;
16159;SDS011;8185;57.818;15.224;2023-04-03T08:05:43;2.73;;;1.00;;
16159;SDS011;8185;57.818;15.224;2023-04-03T08:08:14;4.70;;;1.20;;
16159;SDS011;8185;57.818;15.224;2023-04-03T08:10:42;2.10;;;1.20;;
16159;SDS011;8185;57.818;15.224;2023-04-03T08:13:10;5.73;;;0.93;;
16159;SDS011;8185;57.818;15.224;2023-04-03T08:15:37;3.53;;;1.20;;
16159;SDS011;8185;57.818;15.224;2023-04-03T08:18:04;5.30;;;1.47;;
16159;SDS011;8185;57.818;15.224;2023-04-03T08:20:32;5.20;;;1.10;;
16159;SDS011;8185;57.818;15.224;2023-04-03T08:22:59;5.70;;;1.43;;
16159;SDS011;8185;57.818;15.224;2023-04-03T08:25:28;2.77;;;1.30;;
16159;SDS011;8185;57.818;15.224;2023-04-03T08:27:56;3.43;;;1.03;;
16159;SDS011;8185;57.818;15.224;2023-04-03T08:30:23;3.70;;;1.10;;
16159;SDS011;8185;57.818;15.224;2023-04-03T08:32:50;3.97;;;0.90;;
16159;SDS011;8185;57.818;15.224;2023-04-03T08:35:17;3.43;;;1.43;;
16159;SDS011;8185;57.818;15.224;2023-04-03T08:37:45;3.43;;;0.87;;
16159;SDS011;8185;57.818;15.224;2023-04-03T08:40:13;5.40;;;0.87;;
16159;SDS011;8185;57.818;15.224;2023-04-03T08:42:46;2.77;;;1.37;;
16159;SDS011;8185;57.818;15.224;2023-04-03T08:45:21;4.07;;;1.20;;
16159;SDS011;8185;57.818;15.224;2023-04-03T08:47:59;2.03;;;0.63;;
16159;SDS011;8185;57.818;15.224;2023-04-03T08:50:33;1.80;;;0.90;;
16159;SDS011;8185;57.818;15.224;2023-04-03T08:53:05;3.93;;;0.80;;
16159;SDS011;8185;57.818;15.224;2023-04-03T08:55:39;2.57;;;0.80;;
16159;SDS011;8185;57.818;15.224;2023-04-03T08:58:11;2.30;;;0.67;;
16159;SDS011;8185;57.818;15.224;2023-04-03T09:00:43;2.27;;;0.80;;
16159;SDS011;8185;57.818;15.224;2023-04-03T09:03:13;2.90;;;0.80;;
16159;SDS011;8185;57.818;15.224;2023-04-03T09:05:41;2.60;;;1.20;;
16159;SDS011;8185;57.818;15.224;2023-04-03T09:08:23;3.53;;;0.83;;
16159;SDS011;8185;57.818;15.224;2023-04-03T09:10:57;4.37;;;0.83;;
16159;SDS011;8185;57.818;15.224;2023-04-03T09:13:34;1.70;;;0.90;;
16159;SDS011;8185;57.818;15.224;2023-04-03T09:16:18;2.53;;;0.67;;
16159;SDS011;8185;57.818;15.224;2023-04-03T09:18:52;4.63;;;0.80;;
16159;SDS011;8185;57.818;15.224;2023-04-03T09:21:25;2.87;;;0.90;;
16159;SDS011;8185;57.818;15.224;2023-04-03T09:23:59;2.77;;;1.03;;
16159;SDS011;8185;57.818;15.224;2023-04-03T09:26:30;1.17;;;0.63;;
16159;SDS011;8185;57.818;15.224;2023-04-03T09:29:05;4.07;;;0.60;;
16159;SDS011;8185;57.818;15.224;2023-04-03T09:31:36;3.37;;;0.73;;
16159;SDS011;8185;57.818;15.224;2023-04-03T09:34:06;2.20;;;0.57;;
16159;SDS011;8185;57.818;15.224;2023-04-03T09:36:39;0.80;;;0.53;;
16159;SDS011;8185;57.818;15.224;2023-04-03T09:39:10;4.53;;;0.80;;
16159;SDS011;8185;57.818;15.224;2023-04-03T09:41:42;1.17;;;0.60;;
16159;SDS011;8185;57.818;15.224;2023-04-03T09:44:23;2.03;;;1.13;;
16159;SDS011;8185;57.818;15.224;2023-04-03T09:46:51;2.50;;;0.67;;
16159;SDS011;8185;57.818;15.224;2023-04-03T09:49:19;5.40;;;0.70;;
16159;SDS011;8185;57.818;15.224;2023-04-03T09:51:46;2.93;;;0.70;;
16159;SDS011;8185;57.818;15.224;2023-04-03T09:54:34;3.00;;;0.63;;
16159;SDS011;8185;57.818;15.224;2023-04-03T09:57:09;2.23;;;0.50;;
16159;SDS011;8185;57.818;15.224;2023-04-03T09:59:42;1.03;;;0.53;;
16159;SDS011;8185;57.818;15.224;2023-04-03T10:02:32;2.27;;;0.67;;
16159;SDS011;8185;57.818;15.224;2023-04-03T10:05:03;3.03;;;0.50;;
16159;SDS011;8185;57.818;15.224;2023-04-03T10:07:32;0.90;;;0.30;;
16159;SDS011;8185;57.818;15.224;2023-04-03T10:10:03;3.80;;;0.70;;
16159;SDS011;8185;57.818;15.224;2023-04-03T10:12:47;1.43;;;0.57;;
16159;SDS011;8185;57.818;15.224;2023-04-03T10:15:16;1.73;;;0.60;;
16159;SDS011;8185;57.818;15.224;2023-04-03T10:17:50;2.17;;;0.43;;
16159;SDS011;8185;57.818;15.224;2023-04-03T10:20:27;2.27;;;0.60;;
16159;SDS011;8185;57.818;15.224;2023-04-03T10:23:01;1.13;;;0.50;;
16159;SDS011;8185;57.818;15.224;2023-04-03T10:25:42;2.33;;;0.63;;
16159;SDS011;8185;57.818;15.224;2023-04-03T10:28:17;2.80;;;0.70;;
16159;SDS011;8185;57.818;15.224;2023-04-03T10:30:52;1.53;;;0.60;;
16159;SDS011;8185;57.818;15.224;2023-04-03T10:33:31;1.27;;;0.70;;
16159;SDS011;8185;57.818;15.224;2023-04-03T10:36:12;2.50;;;0.60;;
16159;SDS011;8185;57.818;15.224;2023-04-03T10:38:51;2.53;;;0.80;;
16159;SDS011;8185;57.818;15.224;2023-04-03T10:41:29;2.20;;;0.50;;
16159;SDS011;8185;57.818;15.224;2023-04-03T10:44:06;1.40;;;0.67;;
16159;SDS011;8185;57.818;15.224;2023-04-03T10:46:43;1.90;;;0.60;;
16159;SDS011;8185;57.818;15.224;2023-04-03T10:49:17;2.07;;;0.70;;
16159;SDS011;8185;57.818;15.224;2023-04-03T10:52:01;1.20;;;0.63;;
16159;SDS011;8185;57.818;15.224;2023-04-03T10:54:36;1.03;;;0.53;;
16159;SDS011;8185;57.818;15.224;2023-04-03T10:57:06;3.20;;;0.50;;
16159;SDS011;8185;57.818;15.224;2023-04-03T10:59:36;2.10;;;0.70;;
16159;SDS011;8185;57.818;15.224;2023-04-03T11:02:11;1.23;;;0.50;;
16159;SDS011;8185;57.818;15.224;2023-04-03T11:04:44;2.97;;;0.40;;
16159;SDS011;8185;57.818;15.224;2023-04-03T11:07:15;1.58;;;0.60;;
16159;SDS011;8185;57.818;15.224;2023-04-03T11:09:47;2.00;;;0.60;;
16159;SDS011;8185;57.818;15.224;2023-04-03T11:12:18;0.80;;;0.50;;
16159;SDS011;8185;57.818;15.224;2023-04-03T11:14:51;2.55;;;0.60;;
16159;SDS011;8185;57.818;15.224;2023-04-03T11:17:26;1.75;;;0.40;;
16159;SDS011;8185;57.818;15.224;2023-04-03T11:19:59;1.03;;;0.40;;
16159;SDS011;8185;57.818;15.224;2023-04-03T11:22:34;2.17;;;0.53;;
16159;SDS011;8185;57.818;15.224;2023-04-03T11:25:06;1.47;;;0.70;;
16159;SDS011;8185;57.818;15.224;2023-04-03T11:27:48;1.07;;;0.40;;
16159;SDS011;8185;57.818;15.224;2023-04-03T11:30:18;3.50;;;0.80;;
16159;SDS011;8185;57.818;15.224;2023-04-03T11:32:52;1.70;;;0.67;;
16159;SDS011;8185;57.818;15.224;2023-04-03T11:35:28;2.10;;;0.60;;
16159;SDS011;8185;57.818;15.224;2023-04-03T11:37:56;2.87;;;1.00;;
16159;SDS011;8185;57.818;15.224;2023-04-03T11:40:26;1.73;;;0.63;;
16159;SDS011;8185;57.818;15.224;2023-04-03T11:43:02;1.65;;;0.77;;
16159;SDS011;8185;57.818;15.224;2023-04-03T11:45:37;1.40;;;0.68;;
16159;SDS011;8185;57.818;15.224;2023-04-03T12:09:23;0.83;;;0.53;;
16159;SDS011;8185;57.818;15.224;2023-04-03T12:11:57;1.20;;;0.53;;
16159;SDS011;8185;57.818;15.224;2023-04-03T12:14:26;1.23;;;0.40;;
16159;SDS011;8185;57.818;15.224;2023-04-03T12:16:54;0.70;;;0.37;;
16159;SDS011;8185;57.818;15.224;2023-04-03T12:19:30;2.63;;;0.73;;
16159;SDS011;8185;57.818;15.224;2023-04-03T12:22:08;0.73;;;0.40;;
16159;SDS011;8185;57.818;15.224;2023-04-03T12:24:38;1.23;;;0.40;;
16159;SDS011;8185;57.818;15.224;2023-04-03T12:27:14;1.03;;;0.40;;
16159;SDS011;8185;57.818;15.224;2023-04-03T12:30:04;1.80;;;0.40;;
16159;SDS011;8185;57.818;15.224;2023-04-03T12:32:51;0.70;;;0.40;;
16159;SDS011;8185;57.818;15.224;2023-04-03T12:35:31;0.67;;;0.40;;
16159;SDS011;8185;57.818;15.224;2023-04-03T12:38:20;1.47;;;0.30;;
16159;SDS011;8185;57.818;15.224;2023-04-03T12:41:14;1.03;;;0.60;;
16159;SDS011;8185;57.818;15.224;2023-04-03T12:43:49;0.90;;;0.30;;
16159;SDS011;8185;57.818;15.224;2023-04-03T12:46:26;1.27;;;0.40;;
16159;SDS011;8185;57.818;15.224;2023-04-03T12:49:05;0.63;;;0.40;;
16159;SDS011;8185;57.818;15.224;2023-04-03T12:51:49;0.73;;;0.47;;
16159;SDS011;8185;57.818;15.224;2023-04-03T12:54:18;1.50;;;0.40;;
16159;SDS011;8185;57.818;15.224;2023-04-03T12:56:49;1.90;;;0.50;;
16159;SDS011;8185;57.818;15.224;2023-04-03T12:59:18;1.90;;;0.40;;
16159;SDS011;8185;57.818;15.224;2023-04-03T13:01:53;3.27;;;0.40;;
16159;SDS011;8185;57.818;15.224;2023-04-03T13:04:20;1.63;;;0.57;;
16159;SDS011;8185;57.818;15.224;2023-04-03T13:06:48;1.07;;;0.50;;
16159;SDS011;8185;57.818;15.224;2023-04-03T13:09:20;2.00;;;0.50;;
16159;SDS011;8185;57.818;15.224;2023-04-03T13:11:49;0.53;;;0.30;;
16159;SDS011;8185;57.818;15.224;2023-04-03T13:14:23;0.77;;;0.43;;
16159;SDS011;8185;57.818;15.224;2023-04-03T13:16:54;2.17;;;0.60;;
16159;SDS011;8185;57.818;15.224;2023-04-03T13:19:23;2.07;;;0.50;;
16159;SDS011;8185;57.818;15.224;2023-04-03T13:21:53;0.57;;;0.40;;
16159;SDS011;8185;57.818;15.224;2023-04-03T13:24:27;2.03;;;0.67;;
16159;SDS011;8185;57.818;15.224;2023-04-03T13:26:55;3.03;;;0.40;;
16159;SDS011;8185;57.818;15.224;2023-04-03T13:29:24;0.63;;;0.33;;
16159;SDS011;8185;57.818;15.224;2023-04-03T13:31:54;3.23;;;0.57;;
16159;SDS011;8185;57.818;15.224;2023-04-03T13:34:23;3.13;;;0.50;;
16159;SDS011;8185;57.818;15.224;2023-04-03T13:36:56;1.97;;;0.60;;
16159;SDS011;8185;57.818;15.224;2023-04-03T13:39:25;1.87;;;0.50;;
16159;SDS011;8185;57.818;15.224;2023-04-03T13:41:55;0.70;;;0.50;;
16159;SDS011;8185;57.818;15.224;2023-04-03T13:44:31;1.53;;;0.50;;
16159;SDS011;8185;57.818;15.224;2023-04-03T13:47:01;1.13;;;0.40;;
16159;SDS011;8185;57.818;15.224;2023-04-03T13:49:43;0.67;;;0.40;;
16159;SDS011;8185;57.818;15.224;2023-04-03T13:52:22;0.80;;;0.40;;
16159;SDS011;8185;57.818;15.224;2023-04-03T13:54:55;0.97;;;0.50;;
16159;SDS011;8185;57.818;15.224;2023-04-03T13:57:24;1.00;;;0.47;;
16159;SDS011;8185;57.818;15.224;2023-04-03T13:59:53;1.23;;;0.40;;
16159;SDS011;8185;57.818;15.224;2023-04-03T14:02:22;1.53;;;0.33;;
16159;SDS011;8185;57.818;15.224;2023-04-03T14:04:56;1.00;;;0.50;;
16159;SDS011;8185;57.818;15.224;2023-04-03T14:07:26;0.67;;;0.40;;
16159;SDS011;8185;57.818;15.224;2023-04-03T14:09:56;0.73;;;0.40;;
16159;SDS011;8185;57.818;15.224;2023-04-03T14:12:25;1.27;;;0.50;;
16159;SDS011;8185;57.818;15.224;2023-04-03T14:14:55;1.33;;;0.40;;
16159;SDS011;8185;57.818;15.224;2023-04-03T14:17:23;0.93;;;0.43;;
16159;SDS011;8185;57.818;15.224;2023-04-03T14:19:52;0.60;;;0.40;;
16159;SDS011;8185;57.818;15.224;2023-04-03T14:22:22;0.50;;;0.50;;
16159;SDS011;8185;57.818;15.224;2023-04-03T14:24:51;0.68;;;0.40;;
16159;SDS011;8185;57.818;15.224;2023-04-03T14:27:21;1.15;;;0.55;;
16159;SDS011;8185;57.818;15.224;2023-04-03T14:29:50;1.63;;;0.70;;
16159;SDS011;8185;57.818;15.224;2023-04-03T14:32:20;1.00;;;0.52;;
16159;SDS011;8185;57.818;15.224;2023-04-03T14:34:49;0.82;;;0.40;;
16159;SDS011;8185;57.818;15.224;2023-04-03T14:37:19;0.70;;;0.30;;
16159;SDS011;8185;57.818;15.224;2023-04-03T14:39:50;2.50;;;0.40;;
16159;SDS011;8185;57.818;15.224;2023-04-03T14:42:21;1.48;;;0.50;;
16159;SDS011;8185;57.818;15.224;2023-04-03T14:44:50;1.73;;;0.80;;
16159;SDS011;8185;57.818;15.224;2023-04-03T14:47:19;0.98;;;0.63;;
16159;SDS011;8185;57.818;15.224;2023-04-03T14:49:49;3.38;;;0.90;;
16159;SDS011;8185;57.818;15.224;2023-04-03T14:52:18;0.85;;;0.57;;
16159;SDS011;8185;57.818;15.224;2023-04-03T14:54:47;1.17;;;0.50;;
16159;SDS011;8185;57.818;15.224;2023-04-03T14:57:15;1.67;;;0.50;;
16159;SDS011;8185;57.818;15.224;2023-04-03T14:59:44;1.70;;;0.47;;
16159;SDS011;8185;57.818;15.224;2023-04-03T15:02:24;2.03;;;0.50;;
16159;SDS011;8185;57.818;15.224;2023-04-03T15:04:53;1.40;;;0.50;;
16159;SDS011;8185;57.818;15.224;2023-04-03T15:07:20;1.65;;;0.60;;
16159;SDS011;8185;57.818;15.224;2023-04-03T15:09:48;1.08;;;0.40;;
16159;SDS011;8185;57.818;15.224;2023-04-03T15:12:15;2.47;;;0.68;;
16159;SDS011;8185;57.818;15.224;2023-04-03T15:14:44;1.52;;;0.55;;
16159;SDS011;8185;57.818;15.224;2023-04-03T15:17:14;1.05;;;0.47;;
16159;SDS011;8185;57.818;15.224;2023-04-03T15:19:44;3.40;;;0.60;;
16159;SDS011;8185;57.818;15.224;2023-04-03T15:22:12;1.58;;;0.50;;
16159;SDS011;8185;57.818;15.224;2023-04-03T15:24:41;1.67;;;0.38;;
16159;SDS011;8185;57.818;15.224;2023-04-03T15:27:08;2.63;;;0.55;;